Flight Track Log - Related Links

Times and Time Zones

All times are in EST time to prevent confusion due to time zone crossing. See the SWA4195 flight status page for this flight to view local times or setup timezone preferences in your user account.

Time Position Orientation Groundspeed Altitude Reporting Facility
EST Latitude Longitude Course Direction KTS MPH feet Rate Location/Type
Tue 03:34:47 PM 36.1333 -86.6833 15° North 139 160 1,400  Level Nashville TRACON
Tue 03:35:53 PM 36.1833 -86.6667 15° North 185 213 4,800 3,150 Climbing Nashville TRACON
Tue 03:36:47 PM 36.1833 -86.7333 270° West 236 272 7,700 3,907 Climbing Nashville TRACON
Tue 03:37:19 PM 36.1800 -86.7692 263° West 232 267 10,400 3,613 Climbing Memphis Center
Tue 03:38:20 PM 36.1628 -86.8658 258° West 289 333 13,300 3,707 Climbing Memphis Center
Tue 03:39:22 PM 36.1444 -86.9719 258° West 309 356 18,000 4,000 Climbing Memphis Center
Tue 03:40:23 PM 36.1267 -87.0700 257° West 295 339 21,500 3,049 Climbing Memphis Center
Tue 03:41:24 PM 36.1067 -87.1764 257° West 305 351 24,200 2,780 Climbing Memphis Center
Tue 03:42:26 PM 36.0858 -87.2850 257° West 318 366 27,200 2,732 Climbing Memphis Center
Tue 03:43:27 PM 36.0644 -87.3911 256° West 317 365 29,800 2,341 Climbing Memphis Center
Tue 03:44:29 PM 36.0433 -87.4953 256° West 312 359 32,000 1,854 Climbing Memphis Center
Tue 03:45:30 PM 36.0222 -87.6017 256° West 315 362 33,600 1,854 Climbing Memphis Center
Tue 03:46:32 PM 36.0008 -87.7044 256° West 309 356 35,800 1,805 Climbing Memphis Center
Tue 03:47:33 PM 35.9817 -87.7992 256° West 289 333 37,300 1,180 Climbing Memphis Center
Tue 03:48:34 PM 35.9617 -87.9011 256° West 298 343 38,200 878 Climbing Memphis Center
Tue 03:49:36 PM 35.9381 -88.0092 255° West 317 365 39,100 829 Climbing Memphis Center
Tue 03:50:37 PM 35.9136 -88.1217 255° West 331 381 39,900 439 Climbing Memphis Center
Tue 03:51:39 PM 35.8886 -88.2500 257° West 345 397 40,000 49 Climbing Memphis Center
Tue 03:52:40 PM 35.8400 -88.3556 240° Southwest 355 409 40,000  Level Memphis Center
Tue 03:53:41 PM 35.7889 -88.4578 238° Southwest 351 404 40,000  Level Memphis Center
Tue 03:54:43 PM 35.7381 -88.5614 239° Southwest 351 404 40,000  Level Memphis Center
Tue 03:55:44 PM 35.6878 -88.6633 239° Southwest 349 402 40,000  Level Memphis Center
Tue 03:56:45 PM 35.6369 -88.7656 239° Southwest 349 402 40,000  Level Memphis Center
Tue 03:57:47 PM 35.5822 -88.8711 238° Southwest 347 399 40,000  Level Memphis Center
Tue 03:58:48 PM 35.5319 -88.9728 239° Southwest 346 398 40,000  Level Memphis Center
Tue 03:59:49 PM 35.4803 -89.0756 238° Southwest 350 403 40,000  Level Memphis Center
Tue 04:00:51 PM 35.4278 -89.1769 238° Southwest 349 402 40,000  Level Memphis Center
Tue 04:01:52 PM 35.3669 -89.2978 238° Southwest 353 406 40,000  Level Memphis Center
Tue 04:02:53 PM 35.3142 -89.4011 238° Southwest 355 409 40,000  Level Memphis Center
Tue 04:03:55 PM 35.2611 -89.5044 238° Southwest 356 410 40,000  Level Memphis Center
Tue 04:04:56 PM 35.2083 -89.6069 238° Southwest 355 409 40,000  Level Memphis Center
Tue 04:05:57 PM 35.1556 -89.7097 238° Southwest 355 409 40,000  Level Memphis Center
Tue 04:07:00 PM 35.1040 -89.7952 234° Southwest  Level FlightAware Approximate
Tue 04:14:00 PM 34.9348 -90.4544 261° West  Level FlightAware Approximate
Tue 04:15:00 PM 34.9212 -90.5539 261° West  Level FlightAware Approximate
Tue 04:16:00 PM 34.9076 -90.6535 261° West  Level FlightAware Approximate
Tue 04:17:00 PM 34.8938 -90.7530 260° West  Level FlightAware Approximate
Tue 04:18:00 PM 34.8800 -90.8524 260° West  Level FlightAware Approximate
Tue 04:19:00 PM 34.8661 -90.9518 260° West  Level FlightAware Approximate
Tue 04:20:00 PM 34.8522 -91.0512 260° West  Level FlightAware Approximate
Tue 04:21:00 PM 34.8361 -91.1501 259° West  Level FlightAware Approximate
Tue 04:22:00 PM 34.8200 -91.2490 259° West  Level FlightAware Approximate
Tue 04:23:00 PM 34.8038 -91.3478 259° West  Level FlightAware Approximate
Tue 04:24:00 PM 34.7876 -91.4466 259° West  Level FlightAware Approximate
Tue 04:25:00 PM 34.7713 -91.5454 259° West  Level FlightAware Approximate
Tue 04:26:00 PM 34.7549 -91.6441 259° West  Level FlightAware Approximate
Tue 04:27:00 PM 34.7384 -91.7428 259° West  Level FlightAware Approximate
Tue 04:28:00 PM 34.7219 -91.8414 258° West  Level FlightAware Approximate
Tue 04:29:00 PM 34.7052 -91.9400 258° West  Level FlightAware Approximate
Tue 04:30:00 PM 34.6885 -92.0386 258° West  Level FlightAware Approximate
Tue 04:31:00 PM 34.6717 -92.1372 258° West  Level FlightAware Approximate
Tue 04:32:00 PM 34.6521 -92.2348 255° West  Level FlightAware Approximate
Tue 04:33:00 PM 34.6312 -92.3322 255° West  Level FlightAware Approximate
Tue 04:34:00 PM 34.6090 -92.4290 252° West  Level FlightAware Approximate
Tue 04:35:00 PM 34.5838 -92.5247 252° West  Level FlightAware Approximate
Tue 04:36:00 PM 34.5584 -92.6204 252° West  Level FlightAware Approximate
Tue 04:37:00 PM 34.5330 -92.7160 252° West  Level FlightAware Approximate
Tue 04:38:00 PM 34.5075 -92.8115 252° West  Level FlightAware Approximate
Tue 04:39:00 PM 34.4820 -92.9070 252° West  Level FlightAware Approximate
Tue 04:40:00 PM 34.4563 -93.0024 252° West  Level FlightAware Approximate
Tue 04:41:00 PM 34.4306 -93.0978 252° West  Level FlightAware Approximate
Tue 04:42:00 PM 34.4049 -93.1931 252° West  Level FlightAware Approximate
Tue 04:43:00 PM 34.3790 -93.2884 252° West  Level FlightAware Approximate
Tue 04:44:00 PM 34.3531 -93.3836 252° West  Level FlightAware Approximate
Tue 04:45:00 PM 34.3271 -93.4787 252° West  Level FlightAware Approximate
Tue 04:46:00 PM 34.2989 -93.5729 249° West  Level FlightAware Approximate
Tue 04:47:00 PM 34.2692 -93.6664 249° West  Level FlightAware Approximate
Tue 04:48:00 PM 34.2395 -93.7598 249° West  Level FlightAware Approximate
Tue 04:49:00 PM 34.2097 -93.8531 249° West  Level FlightAware Approximate
Tue 04:50:00 PM 34.1828 -93.9477 252° West  Level FlightAware Approximate
Tue 04:51:00 PM 34.1573 -94.0428 252° West  Level FlightAware Approximate
Tue 04:52:00 PM 34.1317 -94.1379 252° West  Level FlightAware Approximate
Tue 04:53:00 PM 34.1060 -94.2329 252° West  Level FlightAware Approximate
Tue 04:54:00 PM 34.0805 -94.3280 253° West  Level FlightAware Approximate
Tue 04:55:00 PM 34.0567 -94.4236 253° West  Level FlightAware Approximate
Tue 04:56:00 PM 34.0327 -94.5192 253° West  Level FlightAware Approximate
Tue 04:57:00 PM 34.0048 -94.6129 244° Southwest  Level FlightAware Approximate
Tue 04:58:00 PM 33.9731 -94.7048 252° West  Level FlightAware Approximate
Tue 04:59:00 PM 33.9477 -94.7998 252° West  Level FlightAware Approximate
Tue 05:00:00 PM 33.9222 -94.8947 252° West  Level FlightAware Approximate
Tue 05:01:00 PM 33.8966 -94.9895 252° West  Level FlightAware Approximate
Tue 05:02:00 PM 33.8709 -95.0842 252° West  Level FlightAware Approximate
Tue 05:03:00 PM 33.8410 -95.1771 248° West  Level FlightAware Approximate
Tue 05:04:00 PM 33.8150 -95.2684 220° Southwest  Level FlightAware Approximate
Tue 05:05:00 PM 33.7807 -95.3559 252° West  Level FlightAware Approximate
Tue 05:06:00 PM 33.7555 -95.4507 252° West  Level FlightAware Approximate
Tue 05:07:00 PM 33.7303 -95.5454 253° West  Level FlightAware Approximate
Tue 05:08:00 PM 33.7044 -95.6399 250° West  Level FlightAware Approximate
Tue 05:09:00 PM 33.6758 -95.7332 250° West  Level FlightAware Approximate
Tue 05:10:00 PM 33.6468 -95.8263 248° West  Level FlightAware Approximate
Tue 05:11:00 PM 33.6161 -95.9186 248° West  Level FlightAware Approximate
Tue 05:12:00 PM 33.5887 -96.0122 253° West  Level FlightAware Approximate
Tue 05:13:00 PM 33.5649 -96.1073 253° West  Level FlightAware Approximate
Tue 05:14:00 PM 33.5411 -96.2024 253° West  Level FlightAware Approximate
Tue 05:15:00 PM 33.4787 -96.2470 192° South  Level FlightAware Approximate
Tue 05:16:00 PM 33.3988 -96.2726 196° South  Level FlightAware Approximate
Tue 05:17:00 PM 33.3191 -96.2992 196° South  Level FlightAware Approximate
Tue 05:18:00 PM 33.2457 -96.3394 230° Southwest  Level FlightAware Approximate
Tue 05:19:00 PM 33.1920 -96.4146 230° Southwest  Level FlightAware Approximate
Tue 05:20:00 PM 33.1375 -96.4890 228° Southwest  Level FlightAware Approximate
Tue 05:21:00 PM 33.0794 -96.5593 224° Southwest  Level FlightAware Approximate
Tue 05:22:00 PM 33.0197 -96.6276 224° Southwest  Level FlightAware Approximate
Tue 05:23:00 PM 32.9605 -96.6956 239° Southwest  Level FlightAware Approximate
Tue 05:24:00 PM 32.9024 -96.7643 220° Southwest  Level FlightAware Approximate
Tue 05:25:00 PM 32.8448 -96.8347 228° Southwest  Level FlightAware Approximate
Tue 05:26:00 PM 32.8333 -96.8500 228° Southwest  Level FlightAware Approximate
Tue 05:27:00 PM 32.8471 -96.8518 228° Southwest  Level Estimated
Tue 05:28:00 PM 32.8471 -96.8518 228° Southwest  Level Estimated
Tue 05:29:00 PM 32.8471 -96.8518 228° Southwest  Level Estimated
Tue 05:30:00 PM 32.8471 -96.8518 228° Southwest  Level Estimated
Tue 05:31:00 PM 32.8471 -96.8518 228° Southwest  Level Estimated
Tue 05:32:00 PM 32.8471 -96.8518 228° Southwest  Level Estimated
Tue 05:33:00 PM 32.8471 -96.8518 228° Southwest  Level Estimated
Tue 05:34:00 PM 32.8471 -96.8518 228° Southwest  Level Estimated
Tue 05:35:00 PM 32.8471 -96.8518 228° Southwest  Level Estimated
Tue 05:36:00 PM 32.8471 -96.8518 228° Southwest  Level Estimated
Tue 05:37:00 PM 32.8471 -96.8518 228° Southwest  Level Estimated
Tue 05:38:00 PM 32.8471 -96.8518 228° Southwest  Level Estimated
Tue 05:39:00 PM 32.8471 -96.8518 228° Southwest  Level Estimated
Tue 05:40:00 PM 32.8471 -96.8518 228° Southwest  Level Estimated
Tue 05:41:00 PM 32.8471 -96.8518 228° Southwest  Level Estimated
Tue 05:42:00 PM 32.8471 -96.8518 228° Southwest  Level Estimated
Tue 05:43:00 PM 32.8471 -96.8518 228° Southwest  Level Estimated
Tue 05:44:00 PM 32.8471 -96.8518 228° Southwest  Level Estimated
Tue 05:45:00 PM 32.8471 -96.8518 228° Southwest  Level Estimated
Tue 05:46:00 PM 32.8471 -96.8518 228° Southwest  Level Estimated
Tue 05:47:00 PM 32.8471 -96.8518 228° Southwest  Level Estimated
Tue 05:48:00 PM 32.8471 -96.8518 228° Southwest  Level Estimated
Tue 05:49:00 PM 32.8471 -96.8518 228° Southwest  Level Estimated
Tue 05:50:00 PM 32.8471 -96.8518 228° Southwest  Level Estimated
Tue 05:51:00 PM 32.8471 -96.8518 228° Southwest  Level Estimated
Tue 05:52:00 PM 32.8471 -96.8518 228° Southwest  Level Estimated
Tue 05:53:00 PM 32.8471 -96.8518 228° Southwest  Level Estimated
Tue 05:54:00 PM 32.8471 -96.8518 228° Southwest  Level Estimated
Tue 05:55:00 PM 32.8471 -96.8518 228° Southwest  Level Estimated
Tue 05:56:00 PM 32.8471 -96.8518 228° Southwest  Level Estimated
Tue 05:57:00 PM 32.8471 -96.8518 228° Southwest  Level Estimated
Tue 05:58:00 PM 32.8471 -96.8518 228° Southwest  Level Estimated
Tue 05:59:00 PM 32.8471 -96.8518 228° Southwest  Level Estimated
Tue 06:00:00 PM 32.8471 -96.8518 228° Southwest  Level Estimated
Tue 06:01:00 PM 32.8471 -96.8518 228° Southwest  Level Estimated
Tue 06:02:00 PM 32.8471 -96.8518 228° Southwest  Level Estimated
Tue 06:03:00 PM 32.8471 -96.8518 228° Southwest  Level Estimated
Tue 06:04:00 PM 32.8471 -96.8518 228° Southwest  Level Estimated
Tue 06:05:00 PM 32.8471 -96.8518 228° Southwest  Level Estimated
Tue 06:06:00 PM 32.8471 -96.8518 228° Southwest  Level Estimated
Tue 06:07:00 PM 32.8471 -96.8518 228° Southwest  Level Estimated
Tue 06:08:00 PM 32.8471 -96.8518 228° Southwest  Level Estimated
Tue 06:09:00 PM 32.8471 -96.8518 228° Southwest  Level Estimated
Tue 06:10:00 PM 32.8471 -96.8518 228° Southwest  Level Estimated
Tue 06:11:00 PM 32.8471 -96.8518 228° Southwest  Level Estimated
Tue 06:12:00 PM 32.8471 -96.8518 228° Southwest  Level Estimated
Tue 06:13:00 PM 32.8471 -96.8518 228° Southwest  Level Estimated
Tue 06:14:00 PM 32.8471 -96.8518 228° Southwest  Level Estimated
Tue 06:15:00 PM 32.8471 -96.8518 228° Southwest  Level Estimated
Tue 06:16:00 PM 32.8471 -96.8518 228° Southwest  Level Estimated
Tue 06:17:00 PM 32.8471 -96.8518 228° Southwest  Level Estimated
Tue 06:18:00 PM 32.8471 -96.8518 228° Southwest  Level Estimated

Login

Don't have an account? Register now (free) for customized features, flight alerts, and more!